Time;durP1;ratioP1;P1;durP2;ratioP2;P2;SDS_P1;SDS_P2;PMS_P1;PMS_P2;Temp;Humidity;BMP_temperature;BMP_pressure;BME280_temperature;BME280_humidity;BME280_pressure;Samples;Min_cycle;Max_cycle;Signal;HPM_P1;HPM_P2
2023/08/02 00:02:12;;;;;;;8.03;2.70;;;16.10;99.90;;;;;;5093890;28;20104;-71
2023/08/02 00:04:38;;;;;;;6.93;2.57;;;16.10;99.90;;;;;;5094917;28;20048;-71
2023/08/02 00:07:04;;;;;;;6.83;2.87;;;16.10;99.90;;;;;;5094450;28;20468;-71
2023/08/02 00:09:30;;;;;;;6.27;2.80;;;16.10;99.90;;;;;;5092957;28;20384;-71
2023/08/02 00:11:56;;;;;;;6.87;2.67;;;16.10;99.90;;;;;;5094430;28;20117;-71
2023/08/02 00:14:22;;;;;;;9.07;3.00;;;16.10;99.90;;;;;;5093683;28;20095;-71
2023/08/02 00:16:48;;;;;;;7.40;2.90;;;16.10;99.90;;;;;;5094361;28;20079;-71
2023/08/02 00:19:14;;;;;;;7.10;3.00;;;16.10;99.90;;;;;;5094566;28;20440;-71
2023/08/02 00:21:40;;;;;;;8.87;2.97;;;16.10;99.90;;;;;;5094464;28;20052;-71
2023/08/02 00:24:07;;;;;;;7.97;2.87;;;16.10;99.90;;;;;;5094235;28;20514;-71
2023/08/02 00:26:33;;;;;;;12.40;3.50;;;16.10;99.90;;;;;;5094287;28;20089;-71
2023/08/02 00:28:58;;;;;;;7.73;3.30;;;16.10;99.90;;;;;;5094057;28;20048;-71
2023/08/02 00:31:24;;;;;;;9.60;3.53;;;16.10;99.90;;;;;;5093971;28;20040;-71
2023/08/02 00:33:50;;;;;;;9.33;3.77;;;16.10;99.90;;;;;;5093911;28;20077;-71
2023/08/02 00:36:16;;;;;;;9.40;3.87;;;16.10;99.90;;;;;;5094315;28;20047;-71
2023/08/02 00:38:42;;;;;;;14.30;4.00;;;16.10;99.90;;;;;;5093009;28;20040;-71
2023/08/02 00:41:08;;;;;;;9.00;3.40;;;16.00;99.90;;;;;;5093599;28;20124;-71
2023/08/02 00:43:38;;;;;;;8.70;3.70;;;16.00;99.90;;;;;;5094158;28;20081;-71
2023/08/02 00:46:04;;;;;;;8.57;3.50;;;16.00;99.90;;;;;;5093787;28;20052;-71
2023/08/02 00:48:30;;;;;;;8.37;3.73;;;16.00;99.90;;;;;;5094013;28;20117;-71
2023/08/02 00:50:56;;;;;;;9.33;4.63;;;16.00;99.90;;;;;;5093707;28;20055;-71
2023/08/02 00:53:21;;;;;;;11.83;3.70;;;16.00;99.90;;;;;;5093899;28;20047;-71
2023/08/02 00:55:49;;;;;;;8.13;4.20;;;16.00;99.90;;;;;;5092404;28;20131;-71
2023/08/02 00:58:14;;;;;;;7.83;4.03;;;16.00;99.90;;;;;;5093738;28;20044;-71
2023/08/02 01:00:40;;;;;;;8.40;3.80;;;16.10;99.90;;;;;;5093809;28;20051;-71
2023/08/02 01:03:06;;;;;;;8.07;4.23;;;16.00;99.90;;;;;;5093452;28;20051;-71
2023/08/02 01:05:40;;;;;;;10.30;4.57;;;16.10;99.90;;;;;;5092971;28;20048;-71
2023/08/02 01:08:11;;;;;;;11.65;4.47;;;16.00;99.90;;;;;;5093027;28;20056;-71
2023/08/02 01:10:43;;;;;;;13.20;4.73;;;16.10;99.90;;;;;;5093635;28;20052;-71
2023/08/02 01:13:13;;;;;;;10.20;4.10;;;16.00;99.90;;;;;;5093314;28;20051;-71
2023/08/02 01:15:39;;;;;;;9.87;4.30;;;16.00;99.90;;;;;;5093667;28;20086;-71
2023/08/02 01:18:05;;;;;;;7.47;3.63;;;16.10;99.90;;;;;;5092080;28;20059;-71
2023/08/02 01:20:31;;;;;;;8.00;4.00;;;16.00;99.90;;;;;;5092487;28;20079;-71
2023/08/02 01:22:56;;;;;;;10.17;4.10;;;16.00;99.90;;;;;;5093245;28;20130;-71
2023/08/02 01:25:24;;;;;;;11.70;4.40;;;16.00;99.90;;;;;;5093489;28;20044;-71
2023/08/02 01:28:02;;;;;;;8.70;4.43;;;16.00;99.90;;;;;;5092069;28;20044;-71
2023/08/02 01:30:38;;;;;;;11.47;4.00;;;16.00;99.90;;;;;;5093229;28;20085;-71
2023/08/02 01:33:05;;;;;;;9.43;4.53;;;16.00;99.90;;;;;;5093050;28;20040;-71
2023/08/02 01:35:32;;;;;;;13.23;4.73;;;16.00;99.90;;;;;;5093375;28;20108;-71
2023/08/02 01:37:59;;;;;;;6.87;4.60;;;16.00;99.90;;;;;;5092956;28;20518;-71
2023/08/02 01:40:25;;;;;;;10.17;4.80;;;16.00;99.90;;;;;;5092868;28;20469;-71
2023/08/02 01:42:50;;;;;;;7.67;4.13;;;16.00;99.90;;;;;;5093197;28;20052;-71
2023/08/02 01:45:16;;;;;;;9.83;4.60;;;16.00;99.90;;;;;;5092918;28;20127;-71
2023/08/02 01:47:42;;;;;;;8.27;4.17;;;16.00;99.90;;;;;;5093201;28;20040;-71
2023/08/02 01:50:08;;;;;;;11.97;5.30;;;16.00;99.90;;;;;;5093112;28;20131;-71
2023/08/02 01:52:33;;;;;;;12.13;4.73;;;16.00;99.90;;;;;;5093170;28;20048;-71
2023/08/02 01:54:59;;;;;;;9.87;4.40;;;16.00;99.90;;;;;;5091944;28;20036;-71
2023/08/02 01:57:25;;;;;;;9.40;4.63;;;16.00;99.90;;;;;;5093273;28;20185;-71
2023/08/02 01:59:50;;;;;;;6.83;4.43;;;16.00;99.90;;;;;;5093377;28;20048;-71
2023/08/02 02:02:16;;;;;;;9.67;4.80;;;16.00;99.90;;;;;;5096960;28;20108;-71
2023/08/02 02:04:42;;;;;;;11.57;4.47;;;16.00;99.90;;;;;;5097145;28;20488;-71
2023/08/02 02:07:09;;;;;;;10.80;4.33;;;16.00;99.90;;;;;;5096787;28;20040;-71
2023/08/02 02:09:35;;;;;;;11.90;4.63;;;16.00;99.90;;;;;;5095776;28;20452;-71
2023/08/02 02:12:00;;;;;;;8.80;4.00;;;16.00;99.90;;;;;;5096560;28;20052;-72
2023/08/02 02:14:26;;;;;;;9.47;4.10;;;16.00;99.90;;;;;;5096980;28;20054;-71
2023/08/02 02:16:52;;;;;;;7.67;3.73;;;16.00;99.90;;;;;;5096949;28;20472;-71
2023/08/02 02:19:17;;;;;;;9.83;4.83;;;15.90;99.90;;;;;;5096675;28;20409;-71
2023/08/02 02:21:43;;;;;;;9.17;4.30;;;15.90;99.90;;;;;;5097015;28;20055;-71
2023/08/02 02:24:09;;;;;;;13.70;5.20;;;15.90;99.90;;;;;;5096586;28;20051;-71
2023/08/02 02:26:34;;;;;;;10.10;4.20;;;15.90;99.90;;;;;;5097292;28;20053;-71
2023/08/02 02:29:00;;;;;;;10.97;4.57;;;15.90;99.90;;;;;;5096215;28;20123;-72
2023/08/02 02:31:26;;;;;;;11.57;3.97;;;15.90;99.90;;;;;;5096875;28;20094;-71
2023/08/02 02:33:52;;;;;;;8.60;4.43;;;15.90;99.90;;;;;;5096575;28;20050;-71
2023/08/02 02:36:17;;;;;;;11.80;3.87;;;15.90;99.90;;;;;;5096276;28;20056;-71
2023/08/02 02:38:43;;;;;;;12.07;4.00;;;15.90;99.90;;;;;;5096495;28;20051;-71
2023/08/02 02:41:08;;;;;;;11.37;4.37;;;15.90;99.90;;;;;;5096143;28;20452;-71
2023/08/02 02:43:34;;;;;;;11.07;4.47;;;15.90;99.90;;;;;;5096681;28;20055;-71
2023/08/02 02:46:00;;;;;;;9.37;3.70;;;15.90;99.90;;;;;;5096534;28;20131;-71
2023/08/02 02:48:26;;;;;;;11.03;4.47;;;15.90;99.90;;;;;;5094544;28;20395;-71
2023/08/02 02:50:52;;;;;;;13.27;3.90;;;15.90;99.90;;;;;;5096293;28;20047;-71
2023/08/02 02:53:20;;;;;;;12.17;4.30;;;15.90;99.90;;;;;;5096000;28;20056;-71
2023/08/02 02:55:46;;;;;;;12.40;4.67;;;15.90;99.90;;;;;;5096238;28;20063;-71
2023/08/02 02:58:12;;;;;;;18.07;5.23;;;15.90;99.90;;;;;;5095559;28;20534;-71
2023/08/02 03:00:38;;;;;;;11.00;4.93;;;15.90;99.90;;;;;;5096094;28;20047;-71
2023/08/02 03:03:03;;;;;;;11.43;4.40;;;15.90;99.90;;;;;;5095464;28;20055;-73
2023/08/02 03:05:29;;;;;;;15.47;4.87;;;15.90;99.90;;;;;;5094854;28;20048;-71
2023/08/02 03:07:55;;;;;;;14.43;5.00;;;15.80;99.90;;;;;;5095729;28;20496;-71
2023/08/02 03:10:20;;;;;;;12.53;4.27;;;15.80;99.90;;;;;;5095349;28;20059;-71
2023/08/02 03:12:46;;;;;;;14.10;4.63;;;15.80;99.90;;;;;;5094866;28;20044;-71
2023/08/02 03:15:12;;;;;;;16.33;5.13;;;15.90;99.90;;;;;;5095574;28;20560;-72
2023/08/02 03:17:37;;;;;;;11.30;4.50;;;15.80;99.90;;;;;;5095802;28;20380;-71
2023/08/02 03:20:04;;;;;;;12.40;4.70;;;15.80;99.90;;;;;;5095727;28;20052;-71
2023/08/02 03:22:29;;;;;;;14.40;4.67;;;15.80;99.90;;;;;;5094235;28;20040;-71
2023/08/02 03:24:55;;;;;;;16.90;5.70;;;15.80;99.90;;;;;;5095682;28;20044;-71
2023/08/02 03:27:21;;;;;;;15.47;4.80;;;15.80;99.90;;;;;;5095230;28;20051;-71
2023/08/02 03:29:47;;;;;;;17.17;5.13;;;15.80;99.90;;;;;;5095657;28;20459;-71
2023/08/02 03:32:12;;;;;;;14.07;4.90;;;15.80;99.90;;;;;;5095264;28;20044;-71
2023/08/02 03:34:38;;;;;;;14.67;5.80;;;15.80;99.90;;;;;;5094511;28;20469;-71
2023/08/02 03:37:04;;;;;;;14.33;5.50;;;15.80;99.90;;;;;;5095427;28;20123;-71
2023/08/02 03:39:30;;;;;;;15.70;5.87;;;15.80;99.90;;;;;;5093972;28;20437;-71
2023/08/02 03:41:55;;;;;;;15.23;5.63;;;15.80;99.90;;;;;;5095343;28;20080;-71
2023/08/02 03:44:21;;;;;;;13.77;5.63;;;15.80;99.90;;;;;;5095019;28;20044;-71
2023/08/02 03:46:47;;;;;;;17.50;6.17;;;15.70;99.90;;;;;;5095422;28;20059;-71
2023/08/02 03:49:13;;;;;;;16.83;6.07;;;15.70;99.90;;;;;;5093907;28;20058;-71
2023/08/02 03:51:39;;;;;;;20.33;6.93;;;15.80;99.90;;;;;;5094179;28;20373;-71
2023/08/02 03:54:04;;;;;;;18.13;6.13;;;15.70;99.90;;;;;;5095190;28;20484;-71
2023/08/02 03:56:30;;;;;;;13.63;6.03;;;15.70;99.90;;;;;;5093537;28;20468;-71
2023/08/02 03:58:56;;;;;;;18.67;6.57;;;15.70;99.90;;;;;;5094950;28;20044;-71
2023/08/02 04:01:22;;;;;;;19.10;6.03;;;15.70;99.90;;;;;;5094793;28;20075;-72
2023/08/02 04:03:47;;;;;;;17.50;6.67;;;15.70;99.90;;;;;;5094818;28;20104;-71
2023/08/02 04:06:13;;;;;;;15.57;6.40;;;15.70;99.90;;;;;;5094600;28;20047;-72
2023/08/02 04:08:39;;;;;;;17.40;6.50;;;15.70;99.90;;;;;;5094525;28;20056;-72
2023/08/02 04:11:05;;;;;;;22.67;6.47;;;15.70;99.90;;;;;;5094902;28;20476;-71
2023/08/02 04:13:33;;;;;;;16.50;6.80;;;15.70;99.90;;;;;;5094494;28;20067;-71
2023/08/02 04:15:58;;;;;;;17.37;6.23;;;15.70;99.90;;;;;;5094645;28;20044;-71
2023/08/02 04:18:24;;;;;;;17.97;7.30;;;15.70;99.90;;;;;;5094352;28;20040;-71
2023/08/02 04:20:50;;;;;;;19.60;6.83;;;15.60;99.90;;;;;;5094783;28;20119;-71
2023/08/02 04:23:15;;;;;;;16.83;6.80;;;15.60;99.90;;;;;;5092855;28;20044;-72
2023/08/02 04:25:41;;;;;;;15.20;6.30;;;15.60;99.90;;;;;;5094464;28;20079;-71
2023/08/02 04:28:07;;;;;;;18.40;7.40;;;15.60;99.90;;;;;;5094379;28;20051;-72
2023/08/02 04:30:32;;;;;;;15.57;7.70;;;15.60;99.90;;;;;;5093843;28;20197;-71
2023/08/02 04:32:58;;;;;;;21.17;7.73;;;15.60;99.90;;;;;;5094488;28;20044;-71
2023/08/02 04:35:24;;;;;;;14.27;6.77;;;15.60;99.90;;;;;;5093091;28;20052;-71
2023/08/02 04:37:50;;;;;;;20.33;7.47;;;15.60;99.90;;;;;;5094323;28;20036;-71
2023/08/02 04:40:16;;;;;;;13.47;6.40;;;15.60;99.90;;;;;;5093946;28;20097;-71
2023/08/02 04:42:41;;;;;;;18.27;7.20;;;15.60;99.90;;;;;;5076409;28;20060;-71
2023/08/02 04:45:08;;;;;;;19.20;7.30;;;15.60;99.90;;;;;;5094114;28;20059;-71
2023/08/02 04:47:34;;;;;;;16.03;6.60;;;15.60;99.90;;;;;;5093717;28;20052;-71
2023/08/02 04:50:01;;;;;;;17.03;6.77;;;15.60;99.90;;;;;;5094204;28;20495;-71
2023/08/02 04:52:26;;;;;;;15.10;6.73;;;15.50;99.90;;;;;;5093759;28;20050;-71
2023/08/02 04:54:52;;;;;;;23.63;7.70;;;15.50;99.90;;;;;;5093963;28;20043;-72
2023/08/02 04:57:18;;;;;;;13.97;6.93;;;15.50;99.90;;;;;;5093680;28;20491;-72
2023/08/02 04:59:43;;;;;;;14.30;6.90;;;15.50;99.90;;;;;;5092692;28;20083;-71
2023/08/02 05:02:09;;;;;;;18.43;8.00;;;15.60;99.90;;;;;;5093776;28;20051;-71
2023/08/02 05:04:35;;;;;;;16.37;6.90;;;15.60;99.90;;;;;;5093518;28;20092;-71
2023/08/02 05:07:00;;;;;;;19.10;7.43;;;15.60;99.90;;;;;;5093634;28;20044;-71
2023/08/02 05:09:26;;;;;;;13.73;6.53;;;15.60;99.90;;;;;;5093481;28;20381;-71
2023/08/02 05:11:52;;;;;;;13.70;6.60;;;15.60;99.90;;;;;;5093877;28;20048;-71
2023/08/02 05:14:18;;;;;;;17.57;7.30;;;15.60;99.90;;;;;;5093320;28;20130;-71
2023/08/02 05:16:44;;;;;;;15.63;5.97;;;15.60;99.90;;;;;;5094066;28;20080;-72
2023/08/02 05:19:10;;;;;;;13.20;6.20;;;15.60;99.90;;;;;;5093568;28;20411;-72
2023/08/02 05:21:36;;;;;;;17.13;7.37;;;15.60;99.90;;;;;;5092210;28;20059;-72
2023/08/02 05:24:01;;;;;;;13.97;6.30;;;15.60;99.90;;;;;;5093202;28;20131;-72
2023/08/02 05:26:27;;;;;;;11.97;7.07;;;15.60;99.90;;;;;;5092965;28;20119;-72
2023/08/02 05:28:53;;;;;;;13.10;6.87;;;15.60;99.90;;;;;;5075865;28;20044;-72
2023/08/02 05:31:18;;;;;;;15.80;6.47;;;15.60;99.90;;;;;;5093668;28;20083;-71
2023/08/02 05:33:44;;;;;;;13.17;6.93;;;15.60;99.90;;;;;;5092763;28;20048;-71
2023/08/02 05:36:14;;;;;;;14.33;6.80;;;15.60;99.90;;;;;;5093249;28;20095;-71
2023/08/02 05:38:41;;;;;;;12.90;6.97;;;15.60;99.90;;;;;;5093031;28;20040;-72
2023/08/02 05:41:07;;;;;;;14.10;6.53;;;15.60;99.90;;;;;;5092277;28;20040;-71
2023/08/02 05:43:32;;;;;;;15.50;7.23;;;15.60;99.90;;;;;;5093016;28;20044;-71
2023/08/02 05:45:58;;;;;;;14.90;7.03;;;15.60;99.90;;;;;;5093221;28;20104;-71
2023/08/02 05:48:24;;;;;;;14.40;5.93;;;15.70;99.90;;;;;;5092880;28;20080;-72
2023/08/02 05:50:50;;;;;;;13.93;7.40;;;15.70;99.90;;;;;;5092492;28;20373;-71
2023/08/02 05:53:16;;;;;;;14.57;7.17;;;15.80;99.90;;;;;;5093108;28;20042;-71
2023/08/02 05:55:41;;;;;;;12.70;6.57;;;15.90;99.90;;;;;;5091696;28;20044;-71
2023/08/02 05:58:07;;;;;;;16.37;7.23;;;15.90;99.90;;;;;;5093076;28;20044;-71
2023/08/02 06:00:33;;;;;;;14.73;7.37;;;16.20;99.90;;;;;;5092841;28;20040;-72
2023/08/02 06:02:59;;;;;;;12.90;6.67;;;16.30;99.90;;;;;;5093012;28;20044;-72
2023/08/02 06:05:24;;;;;;;15.77;7.13;;;16.30;99.90;;;;;;5091863;28;20044;-74
2023/08/02 06:07:51;;;;;;;14.37;6.57;;;16.30;99.90;;;;;;5092591;28;20040;-72
2023/08/02 06:10:17;;;;;;;12.17;6.33;;;16.30;99.90;;;;;;5091775;28;20048;-71
2023/08/02 06:12:43;;;;;;;15.30;6.30;;;16.40;99.90;;;;;;5092622;28;20062;-71
2023/08/02 06:15:09;;;;;;;12.77;6.30;;;16.40;99.90;;;;;;5091982;28;20127;-72
2023/08/02 06:17:35;;;;;;;10.60;6.33;;;16.30;99.90;;;;;;5092595;28;20143;-73
2023/08/02 06:20:01;;;;;;;16.33;6.80;;;16.30;99.90;;;;;;5092875;28;20046;-72
2023/08/02 06:22:26;;;;;;;15.93;6.93;;;16.30;99.90;;;;;;5092549;28;20051;-74
2023/08/02 06:24:52;;;;;;;14.30;6.90;;;16.30;99.90;;;;;;5092840;28;20087;-72
2023/08/02 06:27:18;;;;;;;14.53;6.13;;;16.30;99.90;;;;;;5092410;28;20059;-72
2023/08/02 06:29:43;;;;;;;13.40;6.40;;;16.30;99.90;;;;;;5092448;28;20098;-72
2023/08/02 06:32:09;;;;;;;13.20;6.43;;;16.40;99.90;;;;;;5074879;28;20054;-70
2023/08/02 06:34:35;;;;;;;15.40;7.10;;;16.40;99.90;;;;;;5092426;28;20121;-70
2023/08/02 06:37:01;;;;;;;17.97;6.80;;;16.50;99.90;;;;;;5092692;28;20044;-70
2023/08/02 06:39:26;;;;;;;13.67;5.50;;;16.60;99.90;;;;;;5091472;28;20107;-70
2023/08/02 06:41:52;;;;;;;13.73;6.60;;;16.60;99.90;;;;;;5092407;28;20059;-70
2023/08/02 06:44:18;;;;;;;13.53;5.90;;;16.60;99.90;;;;;;5092683;28;20048;-70
2023/08/02 06:46:44;;;;;;;13.20;5.97;;;16.60;99.90;;;;;;5094883;28;20040;-70
2023/08/02 06:49:09;;;;;;;13.23;6.93;;;16.60;99.90;;;;;;5096604;28;20170;-71
2023/08/02 06:51:35;;;;;;;15.17;6.80;;;16.60;99.90;;;;;;5096065;28;20063;-71
2023/08/02 06:54:01;;;;;;;14.47;6.20;;;16.60;99.90;;;;;;5095460;28;20055;-70
2023/08/02 06:56:26;;;;;;;13.67;6.57;;;16.60;99.90;;;;;;5096545;28;20048;-70
2023/08/02 06:58:52;;;;;;;10.20;5.43;;;16.60;99.90;;;;;;5095950;28;20480;-70
2023/08/02 07:01:20;;;;;;;15.53;6.50;;;16.60;99.90;;;;;;5096315;28;20044;-70
2023/08/02 07:03:47;;;;;;;12.23;5.50;;;16.60;99.90;;;;;;5095864;28;20065;-70
2023/08/02 07:06:14;;;;;;;13.70;6.47;;;16.60;99.90;;;;;;5096208;28;20058;-71
2023/08/02 07:08:41;;;;;;;13.23;6.67;;;16.60;99.90;;;;;;5094309;28;20052;-71
2023/08/02 07:11:08;;;;;;;11.50;6.30;;;16.60;99.90;;;;;;5095923;28;20052;-71
2023/08/02 07:13:38;;;;;;;18.53;5.90;;;16.60;99.90;;;;;;5095636;28;20055;-71
2023/08/02 07:16:05;;;;;;;12.40;5.43;;;16.50;99.90;;;;;;5096041;28;20458;-70
2023/08/02 07:18:31;;;;;;;13.30;6.10;;;16.50;99.90;;;;;;5095816;28;20119;-70
2023/08/02 07:21:04;;;;;;;11.93;5.77;;;16.50;99.90;;;;;;5095651;28;20083;-70
2023/08/02 07:23:29;;;;;;;11.93;5.43;;;16.40;99.90;;;;;;5096026;28;20047;-70
2023/08/02 07:25:56;;;;;;;13.90;5.60;;;16.40;99.90;;;;;;5094400;28;20540;-70
2023/08/02 07:28:22;;;;;;;11.87;5.57;;;16.40;99.90;;;;;;5094415;28;20051;-69
2023/08/02 07:30:47;;;;;;;13.40;5.60;;;16.30;99.90;;;;;;5095358;28;20048;-70
2023/08/02 07:33:13;;;;;;;9.73;5.30;;;16.30;99.90;;;;;;5095575;28;20498;-69
2023/08/02 07:35:39;;;;;;;11.30;5.80;;;16.20;99.90;;;;;;5095190;28;20048;-69
2023/08/02 07:38:04;;;;;;;12.40;5.73;;;16.30;99.90;;;;;;5095413;28;20047;-69
2023/08/02 07:40:30;;;;;;;12.13;6.50;;;16.30;99.90;;;;;;5095385;28;20123;-68
2023/08/02 07:42:56;;;;;;;15.10;6.30;;;16.20;99.90;;;;;;5095098;28;20040;-69
2023/08/02 07:45:22;;;;;;;13.07;5.70;;;16.20;99.90;;;;;;5094974;28;20093;-68
2023/08/02 07:47:47;;;;;;;11.77;5.37;;;16.20;99.90;;;;;;5094601;28;20052;-69
2023/08/02 07:50:13;;;;;;;13.07;5.07;;;16.20;99.90;;;;;;5095011;28;20071;-69
2023/08/02 07:52:39;;;;;;;14.87;5.90;;;16.10;99.90;;;;;;5092724;28;20044;-71
2023/08/02 07:55:05;;;;;;;14.07;6.00;;;16.10;99.90;;;;;;5094536;28;20052;-69
2023/08/02 07:57:32;;;;;;;13.00;5.57;;;16.00;99.90;;;;;;5092372;28;20050;-69
2023/08/02 07:59:58;;;;;;;11.87;4.70;;;16.10;99.90;;;;;;5094330;28;20048;-69
2023/08/02 08:02:25;;;;;;;11.13;5.70;;;16.00;99.90;;;;;;5093383;28;20421;-69
2023/08/02 08:04:54;;;;;;;11.30;4.77;;;16.00;99.90;;;;;;5093092;28;20126;-70
2023/08/02 08:07:20;;;;;;;10.70;5.20;;;15.90;99.90;;;;;;5094706;28;20048;-69
2023/08/02 08:09:46;;;;;;;11.20;4.83;;;15.90;99.90;;;;;;5094683;28;20063;-69
2023/08/02 08:12:12;;;;;;;9.30;4.97;;;15.90;99.90;;;;;;5093898;28;20044;-69
2023/08/02 08:14:38;;;;;;;12.00;5.23;;;15.90;99.90;;;;;;5093701;28;20384;-69
2023/08/02 08:17:04;;;;;;;10.80;4.87;;;15.80;99.90;;;;;;5094712;28;20044;-68
2023/08/02 08:19:33;;;;;;;11.63;4.90;;;15.80;99.90;;;;;;5094614;28;20048;-68
2023/08/02 08:21:59;;;;;;;11.17;5.33;;;15.70;99.90;;;;;;5094360;28;20128;-68
2023/08/02 08:24:24;;;;;;;12.20;5.00;;;15.60;99.90;;;;;;5094380;28;20127;-68
2023/08/02 08:26:50;;;;;;;11.27;5.37;;;15.60;99.90;;;;;;5094271;28;20089;-68
2023/08/02 08:29:17;;;;;;;12.67;5.50;;;15.60;99.90;;;;;;5094556;28;20036;-68
2023/08/02 08:31:42;;;;;;;13.13;6.07;;;15.50;99.90;;;;;;5094555;28;20051;-69
2023/08/02 08:34:08;;;;;;;14.13;6.40;;;15.50;99.90;;;;;;5094684;28;20040;-68
2023/08/02 08:36:34;;;;;;;17.67;6.30;;;15.50;99.90;;;;;;5094470;28;20052;-68
2023/08/02 08:39:00;;;;;;;10.50;5.80;;;15.50;99.90;;;;;;5093147;28;20387;-69
2023/08/02 08:41:26;;;;;;;11.10;5.53;;;15.60;99.90;;;;;;5093996;28;20048;-69
2023/08/02 08:43:51;;;;;;;13.60;6.27;;;15.60;99.90;;;;;;5093973;28;20048;-69
2023/08/02 08:46:18;;;;;;;14.67;6.60;;;15.50;99.90;;;;;;5094168;28;20056;-69
2023/08/02 08:48:44;;;;;;;10.40;5.67;;;15.50;99.90;;;;;;5092557;28;20044;-70
2023/08/02 08:51:11;;;;;;;9.27;5.30;;;15.50;99.90;;;;;;5094381;28;20043;-69
2023/08/02 08:53:42;;;;;;;12.53;5.87;;;15.50;99.90;;;;;;5094096;28;20466;-68
2023/08/02 08:56:08;;;;;;;10.50;6.53;;;15.40;99.90;;;;;;5093831;28;20044;-68
2023/08/02 08:58:36;;;;;;;11.97;5.70;;;15.40;99.90;;;;;;5093926;28;20487;-68
2023/08/02 09:01:04;;;;;;;11.27;6.13;;;15.40;99.90;;;;;;5093567;28;20083;-69
2023/08/02 09:03:29;;;;;;;11.40;5.97;;;15.40;99.90;;;;;;5093699;28;20040;-68
2023/08/02 09:06:02;;;;;;;9.77;6.30;;;15.50;99.90;;;;;;5093384;28;20055;-70
2023/08/02 09:08:29;;;;;;;13.37;5.70;;;15.50;99.90;;;;;;5093301;28;20048;-67
2023/08/02 09:10:55;;;;;;;11.37;5.67;;;15.40;99.90;;;;;;5092892;28;20181;-67
2023/08/02 09:13:25;;;;;;;13.33;6.27;;;15.50;99.90;;;;;;5075489;28;20127;-68
2023/08/02 09:16:03;;;;;;;12.70;6.87;;;15.50;99.90;;;;;;5093351;28;20047;-68
2023/08/02 09:18:40;;;;;;;15.50;7.20;;;15.50;99.90;;;;;;5093563;28;20086;-67
2023/08/02 09:21:07;;;;;;;11.23;7.37;;;15.60;99.90;;;;;;5093335;28;20044;-68
2023/08/02 09:23:33;;;;;;;11.50;7.93;;;15.60;99.90;;;;;;5092386;28;20048;-72
2023/08/02 09:26:18;;;;;;;12.27;7.93;;;15.60;99.90;;;;;;5092019;28;20411;-66
2023/08/02 09:29:01;;;;;;;14.85;8.05;;;15.70;99.90;;;;;;5092278;28;20083;-66
2023/08/02 09:31:28;;;;;;;12.60;7.60;;;15.70;99.90;;;;;;5093558;28;20468;-65
2023/08/02 09:33:55;;;;;;;12.90;7.93;;;15.70;99.90;;;;;;5093111;28;20052;-66
2023/08/02 09:36:26;;;;;;;12.40;7.70;;;15.70;99.90;;;;;;5093375;28;20551;-65
2023/08/02 09:39:01;;;;;;;13.07;7.90;;;15.70;99.90;;;;;;5093082;28;20066;-69
2023/08/02 09:41:28;;;;;;;12.90;7.17;;;15.70;99.90;;;;;;5093269;28;20052;-67
2023/08/02 09:43:55;;;;;;;10.40;7.43;;;15.70;99.90;;;;;;5091945;28;20044;-68
2023/08/02 09:46:29;;;;;;;11.60;7.33;;;15.80;99.90;;;;;;5093210;28;20036;-67
2023/08/02 09:48:59;;;;;;;16.02;7.80;;;15.70;99.90;;;;;;5092954;28;20052;-68
2023/08/02 09:51:39;;;;;;;13.50;7.67;;;15.80;99.90;;;;;;5092185;28;20047;-68
2023/08/02 09:54:05;;;;;;;9.50;7.10;;;15.80;99.90;;;;;;5091883;28;20090;-69
2023/08/02 09:56:32;;;;;;;10.73;7.27;;;15.80;99.90;;;;;;5093001;28;20079;-69
2023/08/02 09:58:58;;;;;;;9.83;6.83;;;15.80;99.90;;;;;;5092480;28;20135;-69
2023/08/02 10:01:25;;;;;;;13.40;6.73;;;15.80;99.90;;;;;;5092074;28;20131;-68
2023/08/02 10:03:57;;;;;;;10.43;6.73;;;15.80;99.90;;;;;;5092996;28;20045;-68
2023/08/02 10:06:31;;;;;;;12.40;6.50;;;15.90;99.90;;;;;;5093001;28;20134;-69
2023/08/02 10:09:04;;;;;;;10.15;6.50;;;15.90;99.90;;;;;;5092646;28;20086;-69
2023/08/02 10:11:51;;;;;;;11.13;6.30;;;15.90;99.90;;;;;;5093168;28;20059;-68
2023/08/02 10:14:18;;;;;;;8.67;5.93;;;15.90;99.90;;;;;;5092149;28;20091;-68
2023/08/02 10:16:45;;;;;;;10.97;6.20;;;15.90;99.90;;;;;;5092607;28;20488;-69
2023/08/02 10:19:12;;;;;;;9.17;5.77;;;15.90;99.90;;;;;;5092616;28;20086;-70
2023/08/02 10:21:39;;;;;;;10.97;6.23;;;15.90;99.90;;;;;;5095690;28;20170;-69
2023/08/02 10:24:06;;;;;;;8.50;5.90;;;15.90;99.90;;;;;;5096556;28;20040;-70
2023/08/02 10:26:32;;;;;;;9.57;4.83;;;15.90;99.90;;;;;;5095793;28;20047;-70
2023/08/02 10:28:59;;;;;;;8.00;5.53;;;15.90;99.90;;;;;;5095317;28;20048;-68
2023/08/02 10:31:26;;;;;;;9.83;5.73;;;16.00;99.90;;;;;;5097058;28;20044;-69
2023/08/02 10:33:51;;;;;;;13.07;5.23;;;15.90;99.90;;;;;;5096827;28;20040;-69
2023/08/02 10:36:17;;;;;;;8.20;4.80;;;16.00;99.90;;;;;;5096357;28;20051;-76
2023/08/02 10:38:43;;;;;;;8.13;4.67;;;15.90;99.90;;;;;;5095401;28;20047;-66
2023/08/02 10:41:11;;;;;;;7.20;4.40;;;15.90;99.90;;;;;;5096677;28;20055;-66
2023/08/02 10:43:52;;;;;;;6.23;4.50;;;16.00;99.90;;;;;;5096491;28;20495;-66
2023/08/02 10:46:25;;;;;;;6.77;4.17;;;16.00;99.90;;;;;;5096158;28;20097;-69
2023/08/02 10:48:51;;;;;;;8.13;4.47;;;16.00;99.90;;;;;;5095876;28;20039;-67
2023/08/02 10:51:39;;;;;;;6.57;4.07;;;16.00;99.90;;;;;;5095764;28;20056;-70
2023/08/02 10:54:19;;;;;;;6.03;3.73;;;16.00;99.90;;;;;;5092704;28;20126;-70
2023/08/02 10:57:09;;;;;;;6.13;3.43;;;16.00;99.90;;;;;;5096313;28;20052;-69
2023/08/02 10:59:35;;;;;;;6.07;3.00;;;16.10;99.90;;;;;;5096369;28;20083;-69
2023/08/02 11:02:13;;;;;;;5.87;3.00;;;16.10;99.90;;;;;;5096044;28;20094;-69
2023/08/02 11:04:45;;;;;;;5.03;2.90;;;16.10;99.90;;;;;;5095089;28;20048;-69
2023/08/02 11:07:12;;;;;;;4.37;2.60;;;16.10;99.90;;;;;;5096027;28;20098;-69
2023/08/02 11:09:38;;;;;;;5.23;2.77;;;16.10;99.90;;;;;;5095684;28;20135;-69
2023/08/02 11:12:15;;;;;;;4.30;2.90;;;16.20;99.90;;;;;;5095894;28;20053;-70
2023/08/02 11:14:54;;;;;;;4.63;2.60;;;16.30;99.90;;;;;;5096291;28;20055;-70
2023/08/02 11:17:22;;;;;;;4.47;2.70;;;16.30;99.90;;;;;;5095799;28;20055;-70
2023/08/02 11:19:52;;;;;;;5.13;2.60;;;16.30;99.90;;;;;;5094967;28;20064;-69
2023/08/02 11:22:19;;;;;;;4.43;2.50;;;16.30;99.90;;;;;;5095746;28;20118;-69
2023/08/02 11:24:56;;;;;;;4.70;2.90;;;16.40;99.90;;;;;;5095851;28;20047;-69
2023/08/02 11:27:26;;;;;;;5.37;3.30;;;16.40;99.90;;;;;;5095546;28;20052;-69
2023/08/02 11:30:02;;;;;;;6.03;3.50;;;16.50;99.90;;;;;;5095904;28;20051;-69
2023/08/02 11:32:28;;;;;;;5.57;2.93;;;16.60;99.90;;;;;;5094604;28;20048;-69
2023/08/02 11:34:54;;;;;;;7.33;3.80;;;16.80;99.90;;;;;;5095648;28;20071;-69
2023/08/02 11:37:21;;;;;;;6.43;3.80;;;17.00;99.90;;;;;;5094896;28;20463;-70
2023/08/02 11:39:53;;;;;;;5.83;3.60;;;17.10;99.90;;;;;;5095438;28;20055;-71
2023/08/02 11:42:19;;;;;;;6.50;3.37;;;17.20;99.90;;;;;;5095056;28;20117;-69
2023/08/02 11:44:45;;;;;;;5.10;3.43;;;17.40;99.90;;;;;;5095271;28;20485;-69
2023/08/02 11:47:11;;;;;;;4.73;2.90;;;17.40;99.90;;;;;;5095098;28;20091;-69
2023/08/02 11:49:56;;;;;;;4.60;3.17;;;17.50;99.90;;;;;;5076891;28;20579;-68
2023/08/02 11:52:30;;;;;;;4.18;3.08;;;17.60;99.90;;;;;;5094945;28;20048;-69
2023/08/02 11:54:56;;;;;;;4.70;3.03;;;17.70;99.90;;;;;;5095110;28;20048;-69
2023/08/02 11:57:23;;;;;;;5.67;3.23;;;17.80;99.90;;;;;;5094808;28;20040;-69
2023/08/02 11:59:51;;;;;;;5.57;3.20;;;17.90;99.90;;;;;;5094976;28;20044;-69
2023/08/02 12:02:35;;;;;;;6.00;3.00;;;17.90;99.90;;;;;;5094634;28;20087;-69
2023/08/02 12:05:05;;;;;;;4.93;3.37;;;18.00;99.90;;;;;;5095020;28;20091;-69
2023/08/02 12:07:33;;;;;;;4.67;3.30;;;18.10;99.90;;;;;;5090864;28;20076;-69
2023/08/02 12:10:01;;;;;;;4.83;3.20;;;18.10;99.90;;;;;;5088739;28;20083;-69
2023/08/02 12:12:31;;;;;;;4.40;2.83;;;18.20;99.90;;;;;;5089691;28;20094;-70
2023/08/02 12:14:58;;;;;;;4.30;2.97;;;18.10;99.90;;;;;;5091064;28;20051;-69
2023/08/02 12:17:25;;;;;;;4.93;3.43;;;18.10;99.90;;;;;;5091805;28;20498;-69
2023/08/02 12:19:51;;;;;;;5.30;3.23;;;18.10;99.90;;;;;;5091113;28;20131;-69
2023/08/02 12:22:19;;;;;;;4.63;3.50;;;18.10;99.90;;;;;;5089702;28;20048;-70
2023/08/02 12:24:44;;;;;;;6.23;4.13;;;18.10;99.90;;;;;;5090949;28;20393;-69
2023/08/02 12:27:15;;;;;;;6.27;4.67;;;18.20;99.90;;;;;;5090136;28;20043;-69
2023/08/02 12:29:43;;;;;;;8.40;4.83;;;18.30;99.90;;;;;;5090316;28;20050;-69
2023/08/02 12:32:09;;;;;;;5.50;4.27;;;18.50;99.90;;;;;;5090701;28;20048;-70
2023/08/02 12:34:38;;;;;;;6.40;4.60;;;18.60;99.90;;;;;;5090542;28;20055;-66
2023/08/02 12:37:04;;;;;;;5.50;4.60;;;18.60;99.90;;;;;;5094194;28;20115;-66
2023/08/02 12:39:30;;;;;;;7.33;5.20;;;18.80;99.90;;;;;;5094029;28;20074;-67
2023/08/02 12:41:56;;;;;;;5.30;4.20;;;18.80;99.90;;;;;;5094289;28;20480;-67